Terminal Aerodrome Forecast
Issued by NWS Sioux Falls, SD

Home | Current Version | Previous Version | Text Only | Print | Product List | Glossary On
Versions: 1 2 3 4 5 6 7 8 9 10 11 12 13 14
000
FTUS43 KFSD 050520
TAFHON
TAF
KHON 050520Z 0506/0606 18006KT P6SM BKN250
     FM051500 30005KT P6SM FEW250
     FM051700 33005KT P6SM FEW090 FEW250
     FM060100 01005KT P6SM FEW200=

USA.gov is the U.S. government's official web portal to all federal, state and local government web resources and services.